Time;durP1;ratioP1;P1;durP2;ratioP2;P2;SDS_P1;SDS_P2;PMS_P1;PMS_P2;Temp;Humidity;BMP_temperature;BMP_pressure;BME280_temperature;BME280_humidity;BME280_pressure;Samples;Min_cycle;Max_cycle;Signal;HPM_P1;HPM_P2
2022/01/06 00:02:01;;;;;;;0.33;0.33;;;2.10;99.90;;;;;;5105567;28;20283;-59
2022/01/06 00:04:45;;;;;;;2.23;0.30;;;2.20;99.90;;;;;;5109024;28;20196;-53
2022/01/06 00:07:31;;;;;;;0.40;0.33;;;2.20;99.90;;;;;;5107158;28;20192;-64
2022/01/06 00:10:16;;;;;;;1.40;0.50;;;2.10;99.90;;;;;;5107177;27;20234;-58
2022/01/06 00:13:13;;;;;;;0.10;0.10;;;2.10;99.90;;;;;;5102138;27;20318;-60
2022/01/06 00:16:11;;;;;;;0.57;0.20;;;2.10;99.90;;;;;;5086842;28;20243;-62
2022/01/06 00:24:49;;;;;;;7.17;0.67;;;2.10;99.90;;;;;;5128258;27;20253;-61
2022/01/06 00:27:33;;;;;;;0.20;0.20;;;2.10;99.90;;;;;;5125163;27;20262;-58
2022/01/06 00:30:17;;;;;;;0.40;0.40;;;2.10;99.90;;;;;;5108039;28;20192;-54
2022/01/06 00:33:02;;;;;;;0.80;0.80;;;2.10;99.90;;;;;;5105623;28;20317;-56
2022/01/06 00:35:47;;;;;;;0.17;0.17;;;2.20;99.90;;;;;;5109011;28;20276;-62
2022/01/06 00:38:31;;;;;;;1.13;0.30;;;2.20;99.90;;;;;;5108657;28;20192;-64
2022/01/06 00:41:16;;;;;;;0.57;0.20;;;2.20;99.90;;;;;;5105911;28;20228;-61
2022/01/06 00:44:01;;;;;;;0.13;0.13;;;2.20;99.90;;;;;;5109548;28;20188;-60
2022/01/06 00:46:47;;;;;;;0.30;0.30;;;2.10;99.90;;;;;;5108241;28;20203;-59
2022/01/06 00:49:31;;;;;;;0.43;0.43;;;2.10;99.90;;;;;;5107554;28;20268;-59
2022/01/06 00:52:16;;;;;;;0.20;0.20;;;2.10;99.90;;;;;;5109108;28;20220;-55
2022/01/06 00:55:01;;;;;;;2.73;0.50;;;2.10;99.90;;;;;;5101332;28;20192;-62
2022/01/06 00:57:45;;;;;;;0.20;0.20;;;2.20;99.90;;;;;;5108210;28;20196;-59
2022/01/06 01:00:38;;;;;;;0.53;0.40;;;2.20;99.90;;;;;;5108737;28;20223;-63
2022/01/06 01:03:23;;;;;;;0.20;0.20;;;2.20;99.90;;;;;;5103935;27;20215;-58
2022/01/06 01:06:07;;;;;;;0.10;0.10;;;2.20;99.90;;;;;;5115316;27;20192;-52
2022/01/06 01:08:53;;;;;;;0.20;0.20;;;2.30;99.90;;;;;;5116432;27;20210;-64
2022/01/06 01:11:38;;;;;;;0.50;0.50;;;2.30;99.90;;;;;;5115411;27;20232;-57
2022/01/06 01:14:27;;;;;;;0.53;0.50;;;2.20;99.90;;;;;;5114469;27;20277;-58
2022/01/06 01:17:16;;;;;;;0.67;0.43;;;2.20;99.90;;;;;;5115667;27;20188;-64
2022/01/06 01:20:03;;;;;;;1.70;0.53;;;2.20;99.90;;;;;;5113242;27;20196;-57
2022/01/06 01:22:48;;;;;;;0.73;0.73;;;2.20;99.90;;;;;;5116326;27;20207;-56
2022/01/06 01:25:32;;;;;;;1.80;1.23;;;2.30;99.90;;;;;;5114312;27;20237;-54
2022/01/06 01:28:17;;;;;;;0.40;0.40;;;2.20;99.90;;;;;;5119849;27;20273;-50
2022/01/06 01:34:08;;;;;;;2.30;0.83;;;2.30;99.90;;;;;;5104051;27;20236;-61
2022/01/06 01:36:55;;;;;;;0.63;0.43;;;2.30;99.90;;;;;;5116180;27;20200;-55
2022/01/06 01:39:41;;;;;;;0.57;0.57;;;2.30;99.90;;;;;;5113452;27;20294;-51
2022/01/06 01:42:26;;;;;;;0.60;0.60;;;2.30;99.90;;;;;;5114578;27;20186;-53
2022/01/06 01:45:11;;;;;;;0.23;0.23;;;2.10;99.90;;;;;;5118221;27;20245;-56
2022/01/06 01:47:57;;;;;;;1.30;1.20;;;2.20;99.90;;;;;;5117079;27;20211;-63
2022/01/06 01:50:43;;;;;;;0.30;0.30;;;2.10;99.90;;;;;;5106173;28;20276;-57
2022/01/06 01:53:27;;;;;;;0.77;0.40;;;2.10;99.90;;;;;;5104595;28;20340;-54
2022/01/06 01:56:13;;;;;;;0.80;0.80;;;2.00;99.90;;;;;;5105661;28;20192;-61
2022/01/06 01:58:58;;;;;;;0.83;0.77;;;2.00;99.90;;;;;;5104747;28;20184;-51
2022/01/06 02:01:42;;;;;;;1.07;0.50;;;2.00;99.90;;;;;;5107389;28;20197;-57
2022/01/06 02:04:26;;;;;;;0.20;0.20;;;2.00;99.90;;;;;;5104529;28;20191;-59
2022/01/06 02:07:11;;;;;;;0.40;0.40;;;2.00;99.90;;;;;;5106061;28;20234;-54
2022/01/06 02:09:55;;;;;;;1.90;0.30;;;2.10;99.90;;;;;;5110616;28;20215;-55
2022/01/06 02:12:41;;;;;;;0.50;0.50;;;2.10;99.90;;;;;;5112775;28;20243;-50
2022/01/06 02:15:26;;;;;;;1.10;0.37;;;2.00;99.90;;;;;;5116804;28;20194;-57
2022/01/06 02:18:11;;;;;;;0.20;0.20;;;2.00;99.90;;;;;;5112803;28;20276;-51
2022/01/06 02:20:56;;;;;;;0.53;0.50;;;2.00;99.90;;;;;;5108233;28;20226;-58
2022/01/06 02:23:41;;;;;;;1.50;0.60;;;2.00;99.90;;;;;;5116390;28;20213;-52
2022/01/06 02:26:26;;;;;;;0.20;0.20;;;2.00;99.90;;;;;;5115688;28;20214;-54
2022/01/06 02:29:11;;;;;;;6.50;0.50;;;2.00;99.90;;;;;;5113160;28;20196;-46
2022/01/06 02:31:58;;;;;;;1.50;0.60;;;2.00;99.90;;;;;;5115460;28;20191;-58
2022/01/06 02:34:46;;;;;;;1.00;1.00;;;2.10;99.90;;;;;;5116910;28;20199;-56
2022/01/06 02:37:32;;;;;;;0.37;0.37;;;2.10;99.90;;;;;;5111895;28;20196;-58
2022/01/06 02:40:23;;;;;;;0.50;0.50;;;2.10;99.90;;;;;;5114808;28;20285;-54
2022/01/06 02:43:08;;;;;;;2.03;0.63;;;2.10;99.90;;;;;;5109206;27;20192;-51
2022/01/06 02:45:54;;;;;;;2.53;0.60;;;2.10;99.90;;;;;;5113082;28;20314;-51
2022/01/06 02:48:40;;;;;;;6.43;1.60;;;2.10;99.90;;;;;;5115328;28;20233;-61
2022/01/06 02:51:24;;;;;;;0.80;0.30;;;2.10;99.90;;;;;;5113908;27;20223;-61
2022/01/06 02:54:10;;;;;;;2.10;0.50;;;2.10;99.90;;;;;;5116182;27;20224;-52
2022/01/06 02:56:54;;;;;;;0.83;0.57;;;2.00;99.90;;;;;;5117391;27;20200;-63
2022/01/06 02:59:39;;;;;;;0.37;0.20;;;2.00;99.90;;;;;;5114040;27;20226;-49
2022/01/06 03:02:24;;;;;;;1.00;0.27;;;2.00;99.90;;;;;;5117227;27;20199;-59
2022/01/06 03:05:10;;;;;;;0.60;0.60;;;2.00;99.90;;;;;;5107506;27;20215;-56
2022/01/06 03:07:54;;;;;;;0.77;0.40;;;2.00;99.90;;;;;;5113002;27;20255;-58
2022/01/06 03:10:43;;;;;;;0.70;0.70;;;2.00;99.90;;;;;;5116254;27;20226;-60
2022/01/06 03:13:27;;;;;;;0.83;0.83;;;2.00;99.90;;;;;;5108056;27;20214;-56
2022/01/06 03:16:11;;;;;;;0.70;0.63;;;1.90;99.90;;;;;;5115234;27;20184;-51
2022/01/06 03:18:56;;;;;;;1.33;0.90;;;2.00;99.90;;;;;;5116782;27;20215;-51
2022/01/06 03:21:40;;;;;;;0.80;0.80;;;1.90;99.90;;;;;;5115399;27;20287;-56
2022/01/06 03:24:25;;;;;;;5.33;0.63;;;1.90;99.90;;;;;;5119661;27;20195;-57
2022/01/06 03:27:09;;;;;;;0.60;0.60;;;1.90;99.90;;;;;;5112952;27;20272;-59
2022/01/06 03:29:53;;;;;;;0.10;0.10;;;1.90;99.90;;;;;;5115712;27;20199;-49
2022/01/06 03:32:40;;;;;;;1.07;0.97;;;1.90;99.90;;;;;;5119616;27;20231;-60
2022/01/06 03:35:24;;;;;;;0.33;0.33;;;1.90;99.90;;;;;;5116634;27;20278;-59
2022/01/06 03:38:10;;;;;;;0.30;0.30;;;1.80;99.90;;;;;;5121535;27;20236;-55
2022/01/06 03:40:54;;;;;;;0.57;0.50;;;1.80;99.90;;;;;;5120008;27;20250;-61
2022/01/06 03:43:39;;;;;;;0.83;0.83;;;1.80;99.90;;;;;;5114123;27;20194;-58
2022/01/06 03:46:24;;;;;;;1.07;0.97;;;1.90;99.90;;;;;;5121520;27;20187;-58
2022/01/06 03:49:08;;;;;;;4.50;0.90;;;1.90;99.90;;;;;;5116305;27;20195;-51
2022/01/06 03:51:52;;;;;;;1.03;1.00;;;1.90;99.90;;;;;;5113629;27;20235;-55
2022/01/06 03:54:36;;;;;;;0.70;0.70;;;2.00;99.90;;;;;;5119894;27;20341;-57
2022/01/06 03:57:22;;;;;;;0.60;0.60;;;2.00;99.90;;;;;;5113528;27;20188;-62
2022/01/06 04:00:09;;;;;;;0.83;0.83;;;2.00;99.90;;;;;;5119437;27;20249;-55
2022/01/06 04:02:56;;;;;;;0.50;0.50;;;2.00;99.90;;;;;;5114353;27;20192;-61
2022/01/06 04:05:40;;;;;;;0.67;0.67;;;1.90;99.90;;;;;;5115744;27;20281;-55
2022/01/06 04:08:25;;;;;;;0.87;0.70;;;1.90;99.90;;;;;;5117609;27;20220;-56
2022/01/06 04:11:10;;;;;;;0.80;0.80;;;1.90;99.90;;;;;;5113905;27;20233;-51
2022/01/06 04:13:54;;;;;;;0.60;0.60;;;1.90;99.90;;;;;;5111007;27;20223;-58
2022/01/06 04:16:40;;;;;;;1.73;0.97;;;1.90;99.90;;;;;;5114526;27;20245;-59
2022/01/06 04:19:24;;;;;;;0.20;0.20;;;1.90;99.90;;;;;;5111759;27;20206;-60
2022/01/06 04:22:09;;;;;;;4.37;0.87;;;1.90;99.90;;;;;;5104921;27;20254;-52
2022/01/06 04:24:54;;;;;;;0.97;0.97;;;1.90;99.90;;;;;;5114410;27;20188;-55
2022/01/06 04:27:39;;;;;;;1.60;1.00;;;1.80;99.90;;;;;;5113844;27;20196;-62
2022/01/06 04:30:23;;;;;;;0.30;0.30;;;1.90;99.90;;;;;;5114102;27;20241;-57
2022/01/06 04:33:08;;;;;;;0.80;0.80;;;1.90;99.90;;;;;;5113883;27;20267;-60
2022/01/06 04:35:52;;;;;;;1.77;1.47;;;1.90;99.90;;;;;;5111288;27;20191;-63
2022/01/06 04:38:37;;;;;;;2.13;0.80;;;1.80;99.90;;;;;;5121536;27;20187;-57
2022/01/06 04:41:21;;;;;;;0.63;0.53;;;1.80;99.90;;;;;;5114243;27;20271;-60
2022/01/06 04:44:06;;;;;;;0.47;0.47;;;1.80;99.90;;;;;;5114348;27;20215;-53
2022/01/06 04:46:50;;;;;;;1.20;0.60;;;1.80;99.90;;;;;;5113764;27;20270;-50
2022/01/06 04:49:34;;;;;;;0.77;0.77;;;1.90;99.90;;;;;;5111263;27;20200;-63
2022/01/06 04:52:18;;;;;;;0.80;0.80;;;1.90;99.90;;;;;;5104817;27;20225;-49
2022/01/06 04:55:05;;;;;;;0.40;0.40;;;2.00;99.90;;;;;;5117669;27;20235;-61
2022/01/06 04:57:49;;;;;;;0.90;0.90;;;2.00;99.90;;;;;;5099510;27;20196;-57
2022/01/06 05:00:33;;;;;;;1.33;1.27;;;2.00;99.90;;;;;;5114108;27;20207;-57
2022/01/06 05:03:18;;;;;;;1.27;1.13;;;2.10;99.90;;;;;;5116628;27;20234;-61
2022/01/06 05:06:02;;;;;;;1.07;1.00;;;2.10;99.90;;;;;;5105683;27;20253;-54
2022/01/06 05:08:47;;;;;;;1.23;1.13;;;2.00;99.90;;;;;;5112962;27;20195;-62
2022/01/06 05:11:31;;;;;;;1.73;0.97;;;2.00;99.90;;;;;;5113789;27;20199;-59
2022/01/06 05:14:15;;;;;;;1.03;0.77;;;2.00;99.90;;;;;;5101484;27;20257;-62
2022/01/06 05:17:00;;;;;;;0.70;0.63;;;2.10;99.90;;;;;;5113512;27;20188;-52
2022/01/06 05:19:44;;;;;;;1.50;0.60;;;2.10;99.90;;;;;;5114286;27;20196;-51
2022/01/06 05:22:30;;;;;;;1.17;1.17;;;2.10;99.90;;;;;;5116184;27;20234;-51
2022/01/06 05:25:20;;;;;;;1.10;1.10;;;2.10;99.90;;;;;;5115713;27;20199;-53
2022/01/06 05:28:05;;;;;;;0.50;0.50;;;2.10;99.90;;;;;;5103541;27;20241;-58
2022/01/06 05:30:49;;;;;;;0.60;0.60;;;2.10;99.90;;;;;;5110727;27;20249;-56
2022/01/06 05:33:34;;;;;;;1.60;1.10;;;2.10;99.90;;;;;;5114960;27;20339;-60
2022/01/06 05:36:18;;;;;;;0.80;0.60;;;2.10;99.90;;;;;;5111512;27;20192;-52
2022/01/06 05:39:03;;;;;;;2.67;0.70;;;2.10;99.90;;;;;;5112932;27;20239;-56
2022/01/06 05:41:49;;;;;;;1.67;0.77;;;2.10;99.90;;;;;;5114008;27;20191;-61
2022/01/06 05:44:34;;;;;;;0.60;0.60;;;2.10;99.90;;;;;;5109559;27;20200;-60
2022/01/06 05:47:19;;;;;;;0.90;0.83;;;2.00;99.90;;;;;;5109370;27;20233;-60
2022/01/06 05:50:04;;;;;;;1.00;1.00;;;2.00;99.90;;;;;;5117601;27;20204;-62
2022/01/06 05:52:50;;;;;;;0.50;0.50;;;2.00;99.90;;;;;;5113900;27;20243;-61
2022/01/06 05:55:34;;;;;;;0.80;0.80;;;2.10;99.90;;;;;;5113769;27;20191;-61
2022/01/06 05:58:19;;;;;;;0.40;0.40;;;2.10;99.90;;;;;;5112022;27;20277;-53
2022/01/06 06:01:04;;;;;;;0.67;0.67;;;2.00;99.90;;;;;;5114631;27;21290;-58
2022/01/06 06:03:49;;;;;;;0.83;0.83;;;2.00;99.90;;;;;;5116626;27;20283;-56
2022/01/06 06:06:33;;;;;;;2.33;0.63;;;1.90;99.90;;;;;;5112928;28;20184;-58
2022/01/06 06:09:18;;;;;;;10.27;1.17;;;1.90;99.90;;;;;;5115248;28;20288;-59
2022/01/06 06:12:02;;;;;;;0.70;0.70;;;2.00;99.90;;;;;;5117506;28;20192;-60
2022/01/06 06:14:47;;;;;;;0.83;0.80;;;2.10;99.90;;;;;;5114072;28;20187;-51
2022/01/06 06:17:31;;;;;;;6.07;1.30;;;2.10;99.90;;;;;;5107387;28;20237;-54
2022/01/06 06:20:16;;;;;;;1.43;0.70;;;2.10;99.90;;;;;;5118607;28;20233;-61
2022/01/06 06:23:00;;;;;;;2.73;0.70;;;2.20;99.90;;;;;;5115691;28;20280;-50
2022/01/06 06:25:45;;;;;;;1.90;0.97;;;2.20;99.90;;;;;;5115395;27;20187;-52
2022/01/06 06:28:29;;;;;;;3.60;2.20;;;2.20;99.90;;;;;;5115076;27;20281;-50
2022/01/06 06:31:14;;;;;;;0.90;0.90;;;2.20;99.90;;;;;;5111896;27;20191;-59
2022/01/06 06:33:59;;;;;;;1.17;0.80;;;2.10;99.90;;;;;;5118042;27;20246;-56
2022/01/06 06:36:45;;;;;;;1.00;0.90;;;2.20;99.90;;;;;;5121323;27;20241;-52
2022/01/06 06:39:29;;;;;;;1.23;0.93;;;2.10;99.90;;;;;;5124931;27;20197;-54
2022/01/06 06:42:13;;;;;;;1.10;1.03;;;2.10;99.90;;;;;;5110053;27;20188;-55
2022/01/06 06:44:58;;;;;;;2.47;1.10;;;2.10;99.90;;;;;;5115691;27;20228;-63
2022/01/06 06:47:43;;;;;;;1.53;0.83;;;2.10;99.90;;;;;;5117601;27;20199;-53
2022/01/06 06:50:27;;;;;;;0.80;0.80;;;2.10;99.90;;;;;;5109462;27;20187;-54
2022/01/06 06:53:11;;;;;;;0.70;0.70;;;2.20;99.90;;;;;;5119256;27;20227;-48
2022/01/06 06:55:55;;;;;;;1.03;1.03;;;2.20;99.90;;;;;;5129921;27;20196;-49
2022/01/06 06:58:40;;;;;;;1.00;1.00;;;2.20;99.90;;;;;;5126391;27;20199;-52
2022/01/06 07:01:24;;;;;;;2.70;1.43;;;2.20;99.90;;;;;;5129898;27;20303;-56
2022/01/06 07:04:09;;;;;;;1.70;1.40;;;2.30;99.90;;;;;;5129870;27;20199;-51
2022/01/06 07:06:54;;;;;;;0.73;0.53;;;2.30;99.90;;;;;;5127364;27;20217;-50
2022/01/06 07:09:39;;;;;;;2.57;1.00;;;2.40;99.90;;;;;;5129727;27;20203;-51
2022/01/06 07:12:24;;;;;;;1.20;0.87;;;2.40;99.90;;;;;;5126404;27;20199;-50
2022/01/06 07:15:11;;;;;;;0.50;0.50;;;2.40;99.90;;;;;;5124855;27;20218;-61
2022/01/06 07:17:56;;;;;;;4.27;0.93;;;2.50;99.90;;;;;;5129513;27;20297;-59
2022/01/06 07:20:41;;;;;;;0.83;0.77;;;2.50;99.90;;;;;;5127738;27;20192;-61
2022/01/06 07:23:26;;;;;;;0.57;0.47;;;2.50;99.90;;;;;;5127942;27;20186;-55
2022/01/06 07:26:10;;;;;;;0.83;0.80;;;2.50;99.90;;;;;;5129434;27;20223;-61
2022/01/06 07:28:55;;;;;;;4.97;1.60;;;2.50;99.90;;;;;;5126133;27;20333;-61
2022/01/06 07:31:39;;;;;;;0.40;0.40;;;2.50;99.90;;;;;;5128221;27;20324;-62
2022/01/06 07:34:23;;;;;;;3.43;1.20;;;2.50;99.90;;;;;;5128715;27;20291;-63
2022/01/06 07:37:08;;;;;;;2.20;1.20;;;2.50;99.90;;;;;;5113431;27;20248;-57
2022/01/06 07:39:53;;;;;;;1.17;0.80;;;2.50;99.90;;;;;;5117219;27;20196;-54
2022/01/06 07:42:38;;;;;;;5.10;1.40;;;2.50;99.90;;;;;;5114306;27;20184;-58
2022/01/06 07:45:22;;;;;;;0.40;0.40;;;2.50;99.90;;;;;;5093002;28;20196;-61
2022/01/06 07:48:16;;;;;;;1.20;1.20;;;2.50;99.90;;;;;;5099351;28;20189;-48
2022/01/06 07:51:00;;;;;;;0.60;0.60;;;2.40;99.90;;;;;;5096650;28;20192;-52
2022/01/06 07:53:45;;;;;;;1.07;1.00;;;2.40;99.90;;;;;;5115772;27;20265;-52
2022/01/06 07:56:29;;;;;;;1.00;1.00;;;2.40;99.90;;;;;;5119925;27;20253;-57
2022/01/06 07:59:15;;;;;;;0.90;0.73;;;2.40;99.90;;;;;;5111113;27;20237;-60
2022/01/06 08:02:01;;;;;;;0.60;0.60;;;2.40;99.90;;;;;;5116381;27;20274;-58
2022/01/06 08:04:45;;;;;;;0.77;0.77;;;2.30;99.90;;;;;;5115555;27;20192;-54
2022/01/06 08:07:29;;;;;;;0.50;0.40;;;2.30;99.90;;;;;;5115955;27;20233;-50
2022/01/06 08:10:14;;;;;;;0.93;0.93;;;2.30;99.90;;;;;;5114212;27;20253;-62
2022/01/06 08:12:59;;;;;;;2.00;1.30;;;2.30;99.90;;;;;;5114478;27;20223;-64
2022/01/06 08:15:43;;;;;;;0.50;0.47;;;2.30;99.90;;;;;;5115757;27;20268;-57
2022/01/06 08:18:28;;;;;;;0.87;0.70;;;2.20;99.90;;;;;;5118343;27;20565;-58
2022/01/06 08:21:12;;;;;;;0.77;0.77;;;2.30;99.90;;;;;;5116754;27;20187;-63
2022/01/06 08:23:57;;;;;;;2.33;1.37;;;2.30;99.90;;;;;;5112823;27;20192;-56
2022/01/06 08:26:42;;;;;;;0.53;0.53;;;2.30;99.90;;;;;;5111781;27;20200;-59
2022/01/06 08:29:26;;;;;;;0.73;0.73;;;2.30;99.90;;;;;;5130135;27;20179;-57
2022/01/06 08:32:12;;;;;;;0.40;0.40;;;2.40;99.90;;;;;;5118563;27;20188;-50
2022/01/06 08:34:56;;;;;;;1.13;0.80;;;2.60;99.90;;;;;;5119071;27;20197;-54
2022/01/06 08:37:41;;;;;;;0.90;0.60;;;2.70;99.90;;;;;;5104674;27;20192;-55
2022/01/06 08:40:25;;;;;;;4.13;0.93;;;2.80;99.90;;;;;;5107757;28;20188;-56
2022/01/06 08:43:11;;;;;;;2.40;1.07;;;2.90;99.90;;;;;;5106607;28;20228;-61
2022/01/06 08:45:58;;;;;;;0.70;0.70;;;3.10;99.90;;;;;;5103597;28;20208;-57
2022/01/06 08:48:44;;;;;;;3.10;1.07;;;3.10;99.90;;;;;;5107346;28;20322;-56
2022/01/06 08:51:28;;;;;;;3.57;1.17;;;3.10;99.90;;;;;;5100335;27;20239;-56
2022/01/06 08:54:13;;;;;;;0.80;0.80;;;3.10;99.90;;;;;;5104458;27;20269;-58
2022/01/06 08:56:57;;;;;;;1.00;1.00;;;3.10;99.90;;;;;;5110601;27;20230;-59
2022/01/06 08:59:42;;;;;;;1.83;0.87;;;3.30;99.90;;;;;;5103862;28;20952;-53
2022/01/06 09:02:28;;;;;;;0.37;0.37;;;3.30;99.90;;;;;;5108074;28;20188;-53
2022/01/06 09:05:14;;;;;;;18.03;8.80;;;3.40;99.90;;;;;;5127861;27;20229;-60
2022/01/06 09:07:59;;;;;;;1.83;1.20;;;3.30;99.90;;;;;;5100635;28;20214;-45
2022/01/06 09:10:43;;;;;;;0.63;0.63;;;3.20;99.90;;;;;;5107421;28;20188;-55
2022/01/06 09:13:28;;;;;;;1.07;1.03;;;3.30;99.90;;;;;;5105650;28;20261;-60
2022/01/06 09:16:13;;;;;;;1.03;0.87;;;3.20;99.90;;;;;;5103054;28;20234;-54
2022/01/06 09:18:57;;;;;;;1.17;0.73;;;3.10;99.90;;;;;;5108509;28;20215;-49
2022/01/06 09:21:43;;;;;;;0.70;0.70;;;3.10;99.90;;;;;;5105425;28;20180;-57
2022/01/06 09:24:29;;;;;;;0.80;0.80;;;3.00;99.90;;;;;;5107429;28;20200;-58
2022/01/06 09:27:13;;;;;;;1.37;1.10;;;3.10;99.90;;;;;;5102863;28;20204;-62
2022/01/06 09:29:59;;;;;;;0.60;0.60;;;3.10;99.90;;;;;;5103697;28;20196;-59
2022/01/06 09:32:43;;;;;;;0.83;0.73;;;3.10;99.90;;;;;;5108279;28;20275;-56
2022/01/06 09:35:29;;;;;;;1.20;1.10;;;3.30;99.90;;;;;;5106463;28;20196;-62
2022/01/06 09:38:15;;;;;;;3.00;0.90;;;3.60;99.90;;;;;;5104372;27;20216;-53
2022/01/06 09:41:05;;;;;;;0.90;0.90;;;3.60;99.90;;;;;;5108345;27;20317;-58
2022/01/06 09:43:56;;;;;;;0.93;0.93;;;3.70;99.90;;;;;;5129258;27;20208;-62
2022/01/06 09:46:42;;;;;;;1.57;1.07;;;3.70;99.90;;;;;;5101159;27;20199;-59
2022/01/06 09:49:27;;;;;;;0.67;0.67;;;3.60;99.90;;;;;;5120307;27;20213;-60
2022/01/06 09:52:13;;;;;;;1.03;0.50;;;3.60;99.90;;;;;;5143575;27;20268;-51
2022/01/06 09:54:58;;;;;;;0.87;0.57;;;3.70;99.90;;;;;;5108962;27;20208;-50
2022/01/06 09:57:59;;;;;;;0.63;0.63;;;3.70;99.90;;;;;;5139621;27;20250;-53
2022/01/06 10:00:46;;;;;;;1.20;0.73;;;3.60;99.90;;;;;;5101212;27;20187;-59
2022/01/06 10:03:48;;;;;;;1.50;0.57;;;3.80;99.90;;;;;;5099609;27;20323;-56
2022/01/06 10:06:32;;;;;;;1.30;1.20;;;3.70;99.90;;;;;;5104278;28;20187;-50
2022/01/06 10:09:23;;;;;;;0.73;0.60;;;3.60;99.90;;;;;;5117214;27;20274;-59
2022/01/06 10:12:11;;;;;;;0.83;0.70;;;3.50;99.90;;;;;;5120148;28;20284;-54
2022/01/06 10:14:59;;;;;;;1.17;0.93;;;3.60;99.90;;;;;;5113515;28;20219;-56
2022/01/06 10:17:43;;;;;;;0.47;0.47;;;3.80;99.90;;;;;;5102748;28;20196;-55
2022/01/06 10:20:27;;;;;;;0.50;0.50;;;4.20;99.90;;;;;;5113983;28;20196;-60
2022/01/06 10:23:14;;;;;;;0.47;0.47;;;4.50;99.90;;;;;;5104943;28;20258;-48
2022/01/06 10:26:10;;;;;;;0.50;0.50;;;4.70;99.90;;;;;;5092074;28;20238;-52
2022/01/06 10:28:54;;;;;;;3.80;0.87;;;4.70;99.90;;;;;;5100208;28;20203;-52
2022/01/06 10:31:39;;;;;;;0.60;0.57;;;4.70;99.90;;;;;;5105665;28;20220;-50
2022/01/06 10:34:30;;;;;;;0.60;0.60;;;4.50;99.90;;;;;;5100866;28;20228;-58
2022/01/06 10:37:25;;;;;;;0.37;0.37;;;4.50;99.90;;;;;;5097535;28;20209;-54
2022/01/06 10:40:19;;;;;;;1.13;0.53;;;4.40;99.90;;;;;;5134466;27;20372;-56
2022/01/06 10:43:06;;;;;;;2.50;1.30;;;4.30;99.90;;;;;;5102015;28;20195;-54
2022/01/06 10:46:00;;;;;;;1.97;0.93;;;4.20;99.90;;;;;;5112238;28;20203;-56
2022/01/06 10:48:45;;;;;;;1.07;0.77;;;4.10;99.90;;;;;;5106153;28;20275;-62
2022/01/06 10:51:43;;;;;;;0.53;0.53;;;4.20;99.90;;;;;;5110786;28;20276;-60
2022/01/06 10:54:29;;;;;;;0.73;0.20;;;4.10;99.90;;;;;;5108916;28;20220;-57
2022/01/06 10:57:18;;;;;;;0.70;0.70;;;4.10;99.90;;;;;;5097491;28;20211;-51
2022/01/06 11:00:05;;;;;;;0.30;0.30;;;4.20;99.90;;;;;;5100895;28;20191;-55
2022/01/06 11:02:49;;;;;;;2.37;0.83;;;4.50;99.90;;;;;;5102268;28;20251;-56
2022/01/06 11:05:36;;;;;;;1.57;1.47;;;4.40;99.90;;;;;;5128868;27;20298;-51
2022/01/06 11:08:27;;;;;;;1.87;1.03;;;4.50;99.90;;;;;;5114151;28;20203;-60
2022/01/06 11:13:57;;;;;;;0.20;0.20;;;4.30;99.90;;;;;;5117266;27;20238;-51
2022/01/06 11:16:43;;;;;;;3.30;1.07;;;4.30;99.90;;;;;;5109796;28;20278;-53
2022/01/06 11:19:29;;;;;;;0.30;0.30;;;4.20;99.90;;;;;;5106442;28;20188;-48
2022/01/06 11:22:16;;;;;;;0.70;0.70;;;4.30;99.90;;;;;;5127709;27;20176;-45
2022/01/06 11:25:03;;;;;;;0.73;0.43;;;4.20;99.90;;;;;;5107813;27;20250;-49
2022/01/06 11:27:48;;;;;;;1.37;0.73;;;4.20;99.90;;;;;;5105744;28;20189;-48
2022/01/06 11:30:39;;;;;;;0.93;0.73;;;4.30;99.90;;;;;;5102882;28;20224;-52
2022/01/06 11:33:23;;;;;;;3.13;0.57;;;4.40;99.90;;;;;;5109340;28;20255;-50
2022/01/06 11:36:19;;;;;;;2.77;0.40;;;4.40;99.90;;;;;;5107356;28;20204;-55
2022/01/06 11:39:07;;;;;;;0.77;0.77;;;4.30;99.90;;;;;;5091514;28;20281;-55
2022/01/06 11:41:53;;;;;;;1.33;0.40;;;4.40;99.90;;;;;;5110474;28;20350;-51
2022/01/06 11:44:51;;;;;;;1.40;0.13;;;4.20;99.90;;;;;;5106190;28;20258;-62
2022/01/06 11:47:38;;;;;;;0.60;0.60;;;4.30;99.90;;;;;;5088440;28;20243;-59
2022/01/06 11:50:26;;;;;;;0.50;0.50;;;4.30;99.90;;;;;;5089626;28;20242;-54
2022/01/06 11:53:12;;;;;;;1.83;0.90;;;4.20;99.90;;;;;;5118489;27;20231;-60
2022/01/06 11:55:58;;;;;;;0.73;0.50;;;4.20;99.90;;;;;;5108423;27;20188;-46
2022/01/06 11:58:56;;;;;;;0.33;0.30;;;4.40;99.90;;;;;;5109993;28;20261;-62
2022/01/06 12:01:50;;;;;;;3.27;0.83;;;4.40;99.90;;;;;;5104668;27;20200;-59
2022/01/06 12:04:38;;;;;;;0.40;0.40;;;4.40;99.90;;;;;;5106188;27;20200;-57
2022/01/06 12:07:23;;;;;;;0.57;0.57;;;4.50;99.90;;;;;;5133083;27;20290;-58
2022/01/06 12:10:09;;;;;;;4.97;2.70;;;4.60;99.90;;;;;;5106117;27;20188;-51
2022/01/06 12:13:00;;;;;;;5.27;0.30;;;4.70;99.90;;;;;;5110031;28;20236;-51
2022/01/06 12:15:49;;;;;;;0.47;0.47;;;4.60;99.90;;;;;;5108642;28;20233;-51
2022/01/06 12:18:35;;;;;;;0.60;0.40;;;4.80;99.90;;;;;;5106510;28;20192;-49
2022/01/06 12:21:20;;;;;;;0.63;0.63;;;4.90;99.90;;;;;;5100059;28;20197;-47
2022/01/06 12:24:08;;;;;;;0.27;0.27;;;4.90;99.90;;;;;;5105590;28;20235;-48
2022/01/06 12:26:53;;;;;;;1.23;0.60;;;5.00;99.90;;;;;;5104707;28;20188;-60
2022/01/06 12:29:38;;;;;;;1.13;0.73;;;4.90;99.90;;;;;;5108859;28;20258;-49
2022/01/06 12:32:23;;;;;;;0.67;0.60;;;4.80;99.90;;;;;;5105840;28;20253;-55
2022/01/06 12:35:08;;;;;;;3.07;0.50;;;4.80;99.90;;;;;;5107026;28;20204;-56
2022/01/06 12:37:59;;;;;;;0.67;0.30;;;4.70;99.90;;;;;;5108829;28;20216;-48
2022/01/06 12:40:45;;;;;;;0.40;0.40;;;4.60;99.90;;;;;;5105566;28;20227;-57
2022/01/06 12:43:35;;;;;;;0.43;0.40;;;4.50;99.90;;;;;;5107916;28;20220;-55
2022/01/06 12:46:19;;;;;;;1.03;0.67;;;4.30;99.90;;;;;;5107651;28;20200;-46
2022/01/06 12:49:09;;;;;;;0.27;0.27;;;4.10;99.90;;;;;;5087736;28;20185;-51
2022/01/06 12:51:57;;;;;;;0.50;0.50;;;4.10;99.90;;;;;;5088592;28;20367;-60
2022/01/06 12:54:43;;;;;;;2.00;1.00;;;4.10;99.90;;;;;;5085850;28;20225;-52
2022/01/06 12:57:27;;;;;;;3.33;2.10;;;4.10;99.90;;;;;;5113503;27;20193;-53
2022/01/06 13:00:12;;;;;;;0.70;0.70;;;4.10;99.90;;;;;;5087937;28;20259;-49
2022/01/06 13:03:01;;;;;;;0.33;0.33;;;4.20;99.90;;;;;;5104539;28;20200;-63
2022/01/06 13:05:47;;;;;;;1.37;0.67;;;4.00;99.90;;;;;;5105934;28;20204;-59
2022/01/06 13:08:51;;;;;;;0.50;0.40;;;4.10;99.90;;;;;;5108014;28;20196;-54
2022/01/06 13:11:47;;;;;;;0.60;0.60;;;4.10;99.90;;;;;;5105574;28;20211;-55
2022/01/06 13:14:43;;;;;;;1.70;0.80;;;4.10;99.90;;;;;;5104721;28;20265;-57
2022/01/06 13:17:32;;;;;;;0.97;0.60;;;4.00;99.90;;;;;;5100771;28;20250;-49
2022/01/06 13:20:16;;;;;;;0.50;0.43;;;3.90;99.90;;;;;;5105286;28;20331;-56
2022/01/06 13:26:13;;;;;;;0.60;0.60;;;3.90;99.90;;;;;;5088606;28;20232;-54
2022/01/06 13:28:59;;;;;;;0.40;0.40;;;3.90;99.90;;;;;;5084655;28;20255;-54
2022/01/06 13:31:55;;;;;;;1.60;1.43;;;3.80;99.90;;;;;;5090653;28;20223;-44
2022/01/06 13:34:47;;;;;;;0.57;0.43;;;4.00;99.90;;;;;;5106452;28;20232;-50
2022/01/06 13:37:34;;;;;;;0.10;0.10;;;3.80;99.90;;;;;;5104497;28;20196;-46
2022/01/06 13:40:18;;;;;;;0.50;0.50;;;3.90;99.90;;;;;;5105581;28;20237;-55
2022/01/06 13:43:03;;;;;;;49.27;22.13;;;4.00;99.90;;;;;;5106983;28;20200;-57
2022/01/06 13:45:49;;;;;;;1.00;1.00;;;4.20;99.90;;;;;;5104406;28;20184;-60
2022/01/06 13:48:41;;;;;;;0.43;0.43;;;4.30;99.90;;;;;;5107354;28;20305;-58
2022/01/06 13:51:28;;;;;;;0.73;0.40;;;4.10;99.90;;;;;;5107217;28;20227;-54
2022/01/06 13:54:14;;;;;;;0.53;0.53;;;4.10;99.90;;;;;;5103929;28;20250;-48
2022/01/06 13:57:10;;;;;;;1.13;0.67;;;4.00;99.90;;;;;;5106598;28;20196;-54
2022/01/06 13:59:56;;;;;;;0.20;0.20;;;3.90;99.90;;;;;;5106999;28;20245;-62
2022/01/06 14:02:40;;;;;;;0.50;0.50;;;3.70;99.90;;;;;;5094930;28;20257;-46
2022/01/06 14:05:26;;;;;;;2.70;0.90;;;3.80;99.90;;;;;;5106953;28;20192;-60
2022/01/06 14:08:10;;;;;;;0.23;0.23;;;3.80;99.90;;;;;;5105433;28;20218;-56
2022/01/06 14:10:55;;;;;;;0.63;0.50;;;3.90;99.90;;;;;;5103168;28;20200;-61
2022/01/06 14:13:42;;;;;;;0.43;0.43;;;3.80;99.90;;;;;;5107352;28;20247;-50
2022/01/06 14:16:27;;;;;;;1.40;0.80;;;3.80;99.90;;;;;;5104702;28;20196;-51
2022/01/06 14:19:11;;;;;;;0.30;0.30;;;3.90;99.90;;;;;;5105515;28;20277;-60
2022/01/06 14:21:55;;;;;;;4.63;0.50;;;4.40;99.90;;;;;;5107366;28;20192;-50
2022/01/06 14:24:40;;;;;;;1.43;0.50;;;5.80;99.90;;;;;;5103494;28;20196;-54
2022/01/06 14:27:24;;;;;;;0.20;0.20;;;6.70;99.90;;;;;;5106361;28;20188;-48
2022/01/06 14:30:08;;;;;;;0.40;0.40;;;6.70;99.90;;;;;;5106490;28;20245;-48
2022/01/06 14:32:53;;;;;;;1.83;0.50;;;5.90;99.90;;;;;;5103949;28;20200;-53
2022/01/06 14:35:37;;;;;;;0.33;0.33;;;5.70;99.90;;;;;;5106671;28;20200;-46
2022/01/06 14:38:23;;;;;;;1.03;0.83;;;5.30;99.90;;;;;;5101922;28;20234;-55
2022/01/06 14:41:12;;;;;;;0.80;0.37;;;6.10;99.90;;;;;;5083954;28;20196;-54
2022/01/06 14:43:57;;;;;;;1.03;1.03;;;6.20;99.90;;;;;;5086347;28;20189;-49
2022/01/06 14:46:43;;;;;;;1.33;0.80;;;6.50;99.90;;;;;;5102991;28;20250;-49
2022/01/06 14:49:27;;;;;;;2.40;0.53;;;7.20;99.90;;;;;;5089155;28;20204;-48
2022/01/06 14:52:12;;;;;;;0.50;0.50;;;8.00;99.90;;;;;;5090918;28;20392;-56